Data for 04/24/2018

Time Sea-Level Adjusted Pressure Absolute Pressure Temperature Relative Humidity Dew Point   
(mb) (inHg) (mb) (inHg) (C) (F) (%) (C) (F)
00:05 1031 30.45 860 25.4 0.4 32.7 80 -2.7 27.1
00:10 1031 30.45 860 25.4 0.4 32.8 80 -2.7 27.2
00:15 1031 30.45 860 25.4 0.5 32.8 79 -2.8 27
00:20 1031 30.45 860 25.4 0.5 32.8 79 -2.7 27.1
00:25 1031 30.45 860 25.4 0.4 32.8 79 -2.8 27
00:30 1031 30.45 860 25.4 0.4 32.8 79 -2.8 26.9
00:35 1031 30.45 860 25.4 0.4 32.7 79 -2.8 26.9
00:40 1031 30.45 860 25.4 0.3 32.6 80 -2.8 26.9
00:45 1031 30.45 860 25.4 0.2 32.3 81 -2.8 27
00:50 1031 30.45 860 25.4 0.1 32.2 80 -2.9 26.8
00:55 1031 30.45 860 25.4 0.1 32.2 80 -2.9 26.8
01:00 1031 30.45 860 25.4 0.1 32.2 80 -3 26.6
01:05 1031 30.45 860 25.4 0.2 32.3 79 -3 26.5
01:10 1031 30.45 860 25.4 0.2 32.4 78 -3.1 26.4
01:15 1031 30.45 860 25.4 0.3 32.5 78 -3 26.5
01:20 1031 30.45 860 25.4 0.2 32.4 79 -3.1 26.5
01:25 1031 30.45 860 25.4 0.2 32.4 78 -3.1 26.4
01:30 1031 30.45 860 25.4 0.2 32.4 78 -3.1 26.4
01:35 1031 30.45 860 25.4 0.2 32.3 79 -3.1 26.5
01:40 1031 30.45 860 25.4 0.1 32.2 79 -3.1 26.5
01:45 1031 30.45 860 25.4 0 32.1 79 -3.1 26.4
01:50 1031 30.45 860 25.4 0 32 80 -3.1 26.4
01:55 1031 30.45 860 25.4 -0.1 31.9 80 -3.1 26.4
02:00 1031 30.45 860 25.4 -0.2 31.7 81 -3.1 26.4
02:05 1031 30.45 860 25.4 -0.2 31.6 81 -3.1 26.3
02:10 1031 30.45 860 25.4 -0.3 31.5 81 -3.2 26.2
02:15 1031 30.45 860 25.4 -0.3 31.4 81 -3.2 26.2
02:20 1031 30.45 860 25.4 -0.4 31.3 81 -3.3 26.1
02:25 1031 30.45 860 25.4 -0.4 31.3 81 -3.3 26
02:30 1031 30.45 860 25.4 -0.4 31.2 81 -3.4 26
02:35 1031 30.45 860 25.4 -0.4 31.3 80 -3.4 25.9
02:40 1031 30.45 860 25.4 -0.4 31.3 80 -3.4 25.9
02:45 1031 30.45 860 25.4 -0.4 31.4 80 -3.3 26
02:50 1031 30.45 860 25.4 -0.4 31.2 81 -3.3 26
02:55 1031 30.45 860 25.4 -0.5 31.1 81 -3.4 26
03:00 1031 30.45 860 25.4 -0.6 31 81 -3.4 25.8
03:05 1031 30.45 860 25.4 -0.6 30.9 81 -3.4 25.8
03:10 1031 30.45 860 25.4 -0.7 30.8 82 -3.4 25.8
03:15 1031 30.45 860 25.4 -0.8 30.5 82 -3.5 25.7
03:20 1031 30.45 860 25.4 -0.9 30.3 82 -3.6 25.5
03:25 1031 30.45 860 25.4 -1 30.2 82 -3.7 25.4
03:30 1031 30.45 860 25.4 -1 30.1 82 -3.7 25.4
03:35 1031 30.45 860 25.4 -1.1 30 82 -3.8 25.2
03:40 1031 30.45 860 25.4 -1.1 30 82 -3.8 25.1
03:45 1031 30.45 860 25.4 -1.1 30 82 -3.9 25.1
03:50 1031 30.45 860 25.4 -1.1 29.9 82 -3.9 25
03:55 1031 30.45 860 25.4 -1.2 29.9 82 -3.9 24.9
04:00 1031 30.45 860 25.4 -1.2 29.9 81 -4 24.8
04:05 1031 30.45 860 25.4 -1.2 29.9 81 -4 24.8
04:10 1031 30.45 860 25.4 -1.2 29.8 81 -4.1 24.7
04:15 1031 30.45 861 25.43 -1.3 29.7 81 -4.1 24.7
04:20 1031 30.45 861 25.43 -1.3 29.7 81 -4.2 24.5
04:25 1031 30.45 861 25.43 -1.3 29.7 81 -4.2 24.5
04:30 1031 30.45 860 25.4 -1.3 29.6 80 -4.3 24.3
04:35 1031 30.45 861 25.43 -1.3 29.6 81 -4.2 24.4
04:40 1031 30.45 860 25.4 -1.5 29.4 81 -4.2 24.4
04:45 1031 30.45 860 25.4 -1.6 29.1 82 -4.2 24.4
04:50 1031 30.45 860 25.4 -1.8 28.8 83 -4.2 24.4
04:55 1031 30.45 860 25.4 -1.8 28.7 83 -4.3 24.3
05:00 1031 30.45 860 25.4 -1.8 28.7 83 -4.3 24.2
05:05 1031 30.45 860 25.4 -1.9 28.7 83 -4.3 24.2
05:10 1031 30.45 860 25.4 -1.9 28.6 84 -4.3 24.3
05:15 1031 30.45 860 25.4 -1.9 28.6 84 -4.3 24.3
05:20 1031 30.45 861 25.43 -1.8 28.7 84 -4.3 24.3
05:25 1031 30.45 861 25.43 -1.8 28.8 83 -4.3 24.3
05:30 1031 30.45 861 25.43 -1.8 28.8 83 -4.4 24.2
05:35 1031 30.45 861 25.43 -1.8 28.8 82 -4.4 24.1
05:40 1031 30.45 861 25.43 -1.9 28.6 83 -4.5 24
05:45 1031 30.45 861 25.43 -2.1 28.2 83 -4.6 23.7
05:50 1031 30.45 860 25.4 -2.1 28.1 83 -4.6 23.7
05:55 1031 30.45 861 25.43 -2.1 28.2 83 -4.7 23.6
06:00 1031 30.45 861 25.43 -2.1 28.3 82 -4.8 23.3
06:05 1031 30.45 861 25.43 -2.1 28.3 81 -5 23.1
06:10 1031 30.45 861 25.43 -1.9 28.5 81 -4.8 23.3
06:15 1031 30.45 861 25.43 -2 28.4 81 -4.8 23.3
06:20 1031 30.45 861 25.43 -2 28.5 81 -4.8 23.4
06:25 1031 30.45 861 25.43 -2 28.5 81 -4.8 23.3
06:30 1031 30.45 861 25.43 -2 28.4 80 -5 23
06:35 1032 30.47 861 25.43 -2.1 28.3 80 -5 23
06:40 1032 30.47 861 25.43 -2 28.4 80 -4.9 23.1
06:45 1032 30.47 861 25.43 -1.9 28.6 80 -4.9 23.1
06:50 1032 30.47 861 25.43 -1.7 28.9 79 -4.9 23.2
06:55 1032 30.47 861 25.43 -1.8 28.8 79 -4.9 23.2
07:00 1032 30.47 861 25.43 -1.9 28.6 79 -5 23
07:05 1032 30.47 861 25.43 -1.9 28.7 80 -4.9 23.1
07:10 1032 30.47 861 25.43 -1.8 28.8 80 -4.9 23.2
07:15 1032 30.47 861 25.43 -1.7 29 79 -4.9 23.2
07:20 1032 30.47 861 25.43 -1.5 29.3 79 -4.8 23.4
07:25 1032 30.47 861 25.43 -1.3 29.6 79 -4.5 23.9
07:30 1032 30.47 861 25.43 -1.1 30 78 -4.4 24.1
07:35 1032 30.47 861 25.43 -1 30.1 79 -4.3 24.2
07:40 1032 30.47 861 25.43 -0.7 30.7 77 -4.2 24.4
07:45 1032 30.47 861 25.43 -0.5 31.1 76 -4.2 24.4
07:50 1032 30.47 861 25.43 -0.4 31.2 74 -4.5 23.9
07:55 1032 30.47 861 25.43 -0.4 31.3 74 -4.5 23.8
08:00 1032 30.47 861 25.43 -0.5 31.2 73 -4.7 23.6
08:05 1032 30.47 862 25.45 -0.2 31.6 73 -4.4 24.1
08:10 1032 30.47 862 25.45 -0 32 73 -4.3 24.2
08:15 1032 30.47 862 25.45 0.5 32.8 70 -4.4 24.2
08:20 1032 30.47 862 25.45 0.1 32.2 71 -4.6 23.7
08:25 1032 30.47 862 25.45 0.4 32.7 69 -4.7 23.6
08:30 1032 30.47 862 25.45 0.3 32.6 69 -4.7 23.6
08:35 1032 30.47 862 25.45 0.6 33.1 68 -4.7 23.6
08:40 1032 30.47 862 25.45 1.5 34.6 65 -4.4 24
08:45 1032 30.47 862 25.45 1.3 34.4 68 -4 24.9
08:50 1032 30.47 862 25.45 1.7 35 66 -3.9 24.9
08:55 1032 30.47 862 25.45 1.4 34.6 66 -4.2 24.5
09:00 1032 30.47 862 25.45 1.3 34.4 67 -4.1 24.6
09:05 1032 30.47 862 25.45 1.7 35.1 65 -4.1 24.6
09:10 1032 30.47 862 25.45 2.1 35.8 64 -4 24.7
09:15 1032 30.47 862 25.45 2.5 36.5 63 -3.8 25.2
09:20 1032 30.47 862 25.45 2.6 36.8 61 -4.2 24.5
09:25 1032 30.47 862 25.45 2.5 36.6 64 -3.6 25.5
09:30 1032 30.47 862 25.45 2.7 36.9 63 -3.7 25.3
09:35 1032 30.47 862 25.45 2.7 36.8 61 -4.1 24.7
09:40 1032 30.47 862 25.45 3 37.4 61 -3.8 25.2
09:45 1032 30.47 862 25.45 2.5 36.5 64 -3.7 25.4
09:50 1032 30.47 862 25.45 2.3 36.2 63 -3.9 24.9
09:55 1032 30.47 861 25.43 2.8 37 62 -3.7 25.3
10:00 1032 30.47 861 25.43 2.5 36.6 62 -4 24.8
10:05 1032 30.47 861 25.43 2.7 36.8 61 -4.1 24.6
10:10 1032 30.47 861 25.43 2.6 36.7 62 -4 24.7
10:15 1032 30.47 861 25.43 3 37.4 59 -4.1 24.6
10:20 1032 30.47 861 25.43 3.5 38.2 59 -3.8 25.2
10:25 1032 30.47 861 25.43 3.7 38.6 57 -4.1 24.6
10:30 1032 30.47 861 25.43 4.3 39.7 59 -3 26.6
10:35 1032 30.47 861 25.43 4.9 40.9 54 -3.5 25.7
10:40 1032 30.47 861 25.43 4.9 40.8 51 -4.3 24.3
10:45 1032 30.47 861 25.43 4.8 40.7 59 -2.6 27.4
10:50 1032 30.47 861 25.43 5.3 41.6 52 -3.7 25.4
10:55 1032 30.47 861 25.43 5.6 42 49 -4.2 24.5
11:00 1032 30.47 861 25.43 5.7 42.2 50 -4 24.9
11:05 1032 30.47 861 25.43 5.2 41.3 51 -4.1 24.7
11:10 1032 30.47 861 25.43 5 40.9 46 -5.6 21.9
11:15 1032 30.47 861 25.43 5.2 41.3 43 -6.3 20.6
11:20 1032 30.47 861 25.43 5.8 42.4 43 -5.8 21.6
11:25 1032 30.47 861 25.43 5.4 41.8 44 -5.9 21.4
11:30 1032 30.47 861 25.43 5.6 42 45 -5.5 22.1
11:35 1032 30.47 861 25.43 5.4 41.6 44 -6.1 21.1
11:40 1032 30.47 861 25.43 5.7 42.2 45 -5.5 22.2
11:45 1032 30.47 861 25.43 5.8 42.4 40 -6.6 20
11:50 1031 30.45 861 25.43 5.4 41.8 44 -5.9 21.5
11:55 1031 30.45 861 25.43 6.3 43.3 43 -5.5 22.1
12:00 1031 30.45 861 25.43 6 42.8 40 -6.6 20.1
12:05 1031 30.45 861 25.43 5.8 42.4 39 -7.2 19
12:10 1031 30.45 861 25.43 6 42.7 38 -7.1 19.2
12:15 1031 30.45 860 25.4 6.1 43 42 -5.8 21.6
12:20 1031 30.45 860 25.4 6.1 43.1 41 -6.2 20.8
12:25 1031 30.45 860 25.4 6.3 43.4 36 -7.6 18.3
12:30 1031 30.45 860 25.4 6.3 43.3 38 -7 19.3
12:35 1031 30.45 860 25.4 6.8 44.2 42 -5.3 22.4
12:40 1031 30.45 860 25.4 6.6 43.8 42 -5.5 22
12:45 1031 30.45 860 25.4 6.3 43.3 38 -6.9 19.7
12:50 1031 30.45 860 25.4 7.1 44.8 40 -5.5 22.1
12:55 1031 30.45 860 25.4 6.9 44.5 38 -6.4 20.5
13:00 1031 30.45 860 25.4 7.2 44.9 41 -5.3 22.4
13:05 1031 30.45 860 25.4 7.3 45.2 41 -5 23
13:10 1031 30.45 860 25.4 7.7 45.9 38 -5.7 21.7
13:15 1031 30.45 860 25.4 7.9 46.2 35 -6.7 19.9
13:20 1031 30.45 860 25.4 7.5 45.5 36 -6.6 20.1
13:25 1031 30.45 860 25.4 8 46.3 40 -4.8 23.3
13:30 1031 30.45 860 25.4 8.2 46.7 38 -5.2 22.6
13:35 1030 30.42 860 25.4 8 46.5 38 -5.4 22.2
13:40 1030 30.42 860 25.4 8.4 47 36 -5.8 21.5
13:45 1030 30.42 860 25.4 8.9 48.1 36 -5.3 22.4
13:50 1030 30.42 860 25.4 8.7 47.7 33 -6.6 20.1
13:55 1030 30.42 860 25.4 8.8 47.9 34 -6.3 20.6
14:00 1030 30.42 859 25.37 8.7 47.7 37 -5.3 22.4
14:05 1030 30.42 859 25.37 8.7 47.6 34 -6.3 20.7
14:10 1030 30.42 859 25.37 9 48.1 34 -6.1 21.1
14:15 1030 30.42 859 25.37 9.3 48.7 33 -6.1 21
14:20 1030 30.42 859 25.37 10.5 50.8 31 -5.9 21.3
14:25 1030 30.42 859 25.37 9.9 49.7 32 -5.9 21.4
14:30 1030 30.42 859 25.37 9.7 49.5 32 -6.2 20.8
14:35 1030 30.42 859 25.37 9.3 48.8 33 -6.2 20.8
14:40 1030 30.42 859 25.37 9.8 49.6 33 -5.7 21.7
14:45 1030 30.42 859 25.37 10.2 50.4 31 -6.3 20.7
14:50 1030 30.42 859 25.37 9.9 49.9 32 -5.8 21.5
14:55 1030 30.42 859 25.37 10.2 50.3 33 -5.4 22.2
15:00 1030 30.42 859 25.37 11.3 52.3 33 -4.5 23.9
15:05 1030 30.42 859 25.37 10.9 51.7 33 -4.9 23.2
15:10 1030 30.42 859 25.37 11.2 52.2 31 -5.3 22.5
15:15 1030 30.42 859 25.37 12.2 53.9 30 -4.8 23.4
15:20 1030 30.42 859 25.37 11.4 52.6 33 -4.1 24.6
15:25 1030 30.42 859 25.37 11.5 52.8 33 -4.2 24.5
15:30 1029 30.39 859 25.37 11.2 52.1 34 -4 24.8
15:35 1029 30.39 859 25.37 9.9 49.9 35 -4.8 23.3
15:40 1029 30.39 858 25.34 10.5 50.8 34 -4.8 23.4
15:45 1029 30.39 858 25.34 11.9 53.4 31 -4.8 23.4
15:50 1029 30.39 858 25.34 11.7 53.1 32 -4.5 24
15:55 1029 30.39 858 25.34 11.9 53.4 33 -3.8 25.2
16:00 1029 30.39 858 25.34 11.1 52 33 -4.3 24.2
16:05 1029 30.39 858 25.34 11.6 52.8 32 -4.7 23.5
16:10 1029 30.39 858 25.34 11.8 53.2 33 -3.8 25.1
16:15 1029 30.39 858 25.34 12 53.7 32 -3.9 24.9
16:20 1029 30.39 858 25.34 12.3 54.2 33 -3.4 25.8
16:25 1029 30.39 858 25.34 11 51.8 35 -4 24.8
16:30 1029 30.39 858 25.34 10.9 51.6 33 -4.6 23.8
16:35 1029 30.39 858 25.34 11.6 52.9 32 -4.5 24
16:40 1029 30.39 858 25.34 12 53.6 32 -4.1 24.6
16:45 1029 30.39 858 25.34 12.2 53.9 31 -4.3 24.3
16:50 1029 30.39 858 25.34 12.8 55.1 30 -4.3 24.2
16:55 1029 30.39 858 25.34 12.2 53.9 32 -4.1 24.7
17:00 1029 30.39 858 25.34 12.1 53.7 31 -4.5 23.9
17:05 1029 30.39 858 25.34 12.6 54.7 31 -4.2 24.5
17:10 1029 30.39 858 25.34 13 55.5 30 -4.1 24.7
17:15 1029 30.39 858 25.34 13.1 55.5 31 -3.6 25.5
17:20 1029 30.39 858 25.34 12.7 54.8 32 -3.5 25.8
17:25 1029 30.39 858 25.34 13.2 55.7 31 -3.7 25.3
17:30 1029 30.39 858 25.34 13.5 56.2 30 -3.5 25.6
17:35 1029 30.39 858 25.34 12.8 55 32 -3.4 25.9
17:40 1028 30.36 858 25.34 12.3 54.1 33 -3.4 25.9
17:45 1028 30.36 858 25.34 12.7 54.9 33 -3.2 26.3
17:50 1028 30.36 858 25.34 13 55.3 33 -2.9 26.8
17:55 1028 30.36 858 25.34 13 55.4 33 -2.9 26.8
18:00 1028 30.36 858 25.34 12.9 55.2 34 -2.6 27.2
18:05 1028 30.36 858 25.34 12.8 55 34 -2.8 27
18:10 1028 30.36 857 25.31 12.4 54.4 36 -2.2 28
18:15 1028 30.36 857 25.31 12 53.6 36 -2.4 27.6
18:20 1028 30.36 857 25.31 12.1 53.8 36 -2.3 27.9
18:25 1028 30.36 857 25.31 12.1 53.7 37 -2.3 27.9
18:30 1028 30.36 857 25.31 11.9 53.5 38 -1.8 28.7
18:35 1028 30.36 857 25.31 11.9 53.4 37 -2.3 27.8
18:40 1028 30.36 857 25.31 12.1 53.7 37 -1.9 28.5
18:45 1028 30.36 857 25.31 11.7 53.1 38 -2.1 28.3
18:50 1028 30.36 857 25.31 11.3 52.3 39 -2.1 28.2
18:55 1028 30.36 857 25.31 11 51.8 40 -2 28.4
19:00 1028 30.36 857 25.31 10.5 50.9 41 -2.2 28.1
19:05 1028 30.36 857 25.31 10.2 50.4 42 -2.1 28.2
19:10 1028 30.36 857 25.31 10.6 51 41 -2 28.4
19:15 1028 30.36 857 25.31 10.7 51.3 41 -1.8 28.7
19:20 1028 30.36 857 25.31 10.7 51.3 41 -1.9 28.5
19:25 1027 30.33 857 25.31 10.8 51.4 41 -1.8 28.8
19:30 1027 30.33 857 25.31 10.8 51.4 41 -2 28.4
19:35 1027 30.33 857 25.31 10.7 51.2 41 -2 28.4
19:40 1027 30.33 857 25.31 10.5 50.8 41 -2.3 27.9
19:45 1027 30.33 857 25.31 10.3 50.6 42 -2.1 28.2
19:50 1027 30.33 856 25.28 10.3 50.5 42 -2 28.3
19:55 1027 30.33 856 25.28 10.3 50.5 43 -1.8 28.8
20:00 1027 30.33 856 25.28 10.2 50.4 43 -1.7 28.9
20:05 1027 30.33 856 25.28 10.1 50.2 43 -1.9 28.7
20:10 1027 30.33 856 25.28 10.1 50.2 43 -2 28.5
20:15 1027 30.33 856 25.28 10 50 43 -1.9 28.6
20:20 1027 30.33 856 25.28 9.8 49.7 44 -1.7 28.9
20:25 1027 30.33 856 25.28 9.8 49.6 45 -1.5 29.3
20:30 1027 30.33 856 25.28 9.6 49.2 46 -1.4 29.5
20:35 1027 30.33 856 25.28 9.3 48.8 53 0.3 32.5
20:40 1027 30.33 856 25.28 8.7 47.6 57 0.8 33.4
20:45 1027 30.33 856 25.28 8.1 46.5 60 0.8 33.4
20:50 1027 30.33 856 25.28 7.6 45.7 62 0.8 33.4
20:55 1027 30.33 856 25.28 7.2 45 63 0.7 33.3
21:00 1027 30.33 856 25.28 7 44.6 65 0.8 33.5
21:05 1027 30.33 856 25.28 6.7 44.1 66 0.7 33.3
21:10 1027 30.33 856 25.28 6.5 43.6 66 0.6 33.1
21:15 1027 30.33 856 25.28 6.4 43.5 66 0.5 32.8
21:20 1027 30.33 856 25.28 6.2 43.1 66 0.4 32.6
21:25 1027 30.33 856 25.28 5.9 42.6 68 0.4 32.7
21:30 1027 30.33 856 25.28 5.5 41.9 69 0.3 32.5
21:35 1027 30.33 856 25.28 5.2 41.4 70 0.1 32.2
21:40 1027 30.33 856 25.28 5 40.9 70 0 32.1
21:45 1027 30.33 856 25.28 4.7 40.5 72 0.1 32.2
21:50 1027 30.33 856 25.28 4.6 40.2 73 0.2 32.4
21:55 1027 30.33 856 25.28 4.6 40.3 73 0.2 32.4
22:00 1027 30.33 856 25.28 4.7 40.5 73 0.3 32.6
22:05 1027 30.33 856 25.28 4.7 40.4 73 0.3 32.6
22:10 1027 30.33 856 25.28 4.6 40.2 73 0.2 32.4
22:15 1027 30.33 856 25.28 4.5 40.2 73 0.1 32.3
22:20 1027 30.33 856 25.28 4.3 39.8 74 0.1 32.2
22:25 1027 30.33 856 25.28 4.2 39.6 74 -0 32
22:30 1027 30.33 856 25.28 4.1 39.4 75 -0 32
22:35 1027 30.33 856 25.28 4.1 39.4 74 -0.1 31.8
22:40 1027 30.33 856 25.28 4 39.2 74 -0.3 31.5
22:45 1027 30.33 856 25.28 4.1 39.3 73 -0.4 31.3
22:50 1027 30.33 856 25.28 4.1 39.4 74 -0.2 31.6
22:55 1027 30.33 856 25.28 4 39.2 74 -0.1 31.7
23:00 1027 30.33 856 25.28 3.8 38.9 75 -0.2 31.7
23:05 1027 30.33 856 25.28 3.8 38.8 76 -0.2 31.7
23:10 1027 30.33 856 25.28 3.7 38.6 75 -0.3 31.5
23:15 1026 30.3 856 25.28 3.6 38.6 75 -0.4 31.3
23:20 1026 30.3 856 25.28 3.5 38.4 76 -0.4 31.3
23:25 1026 30.3 856 25.28 3.5 38.2 75 -0.5 31.1
23:30 1026 30.3 856 25.28 3.5 38.3 75 -0.6 31
23:35 1026 30.3 855 25.25 3.5 38.3 74 -0.7 30.8
23:40 1026 30.3 855 25.25 3.2 37.7 75 -0.8 30.6
23:45 1026 30.3 855 25.25 2.7 36.9 77 -0.9 30.4
23:50 1026 30.3 855 25.25 2.5 36.5 77 -1.1 30
23:55 1026 30.3 855 25.25 2.5 36.5 77 -1.2 29.9
24:00 1026 30.3 855 25.25 2.6 36.7 77 -1 30.1